createdAt,value
2022-08-03T00:00:48.314Z,90.61
2022-08-03T00:06:09.298Z,90.34
2022-08-03T00:11:30.202Z,90.40
2022-08-03T00:16:50.578Z,90.39
2022-08-03T00:22:11.580Z,90.46
2022-08-03T00:27:32.675Z,90.39
2022-08-03T00:32:54.373Z,90.50
2022-08-03T00:38:15.539Z,90.38
2022-08-03T00:43:36.202Z,90.35
2022-08-03T00:48:56.984Z,90.47
2022-08-03T00:54:17.936Z,90.25
2022-08-03T00:59:39.270Z,90.39
2022-08-03T01:05:00.212Z,90.56
2022-08-03T01:11:01.868Z,90.85
2022-08-03T01:16:37.055Z,90.51
2022-08-03T01:22:00.816Z,90.61
2022-08-03T01:27:28.612Z,90.94
2022-08-03T01:33:01.854Z,90.55
2022-08-03T01:38:28.818Z,90.72
2022-08-03T01:44:27.242Z,90.74
2022-08-03T01:49:37.165Z,90.66
2022-08-03T01:55:00.072Z,90.54
2022-08-03T02:00:21.299Z,90.88
2022-08-03T02:05:47.248Z,90.67
2022-08-03T02:11:08.328Z,90.85
2022-08-03T02:16:30.939Z,90.81
2022-08-03T02:21:57.217Z,91.03
2022-08-03T02:27:24.379Z,91.08
2022-08-03T02:32:54.482Z,90.85
2022-08-03T02:38:19.306Z,91.02
2022-08-03T02:44:05.946Z,90.82
2022-08-03T02:49:40.979Z,91.10
2022-08-03T02:55:05.626Z,90.94
2022-08-03T03:00:27.494Z,91.03
2022-08-03T03:05:55.339Z,91.08
2022-08-03T03:11:20.926Z,90.83
2022-08-03T03:16:44.503Z,90.84
2022-08-03T03:22:12.581Z,91.06
2022-08-03T03:27:34.088Z,90.98
2022-08-03T03:32:55.301Z,91.17
2022-08-03T03:38:16.352Z,90.68
2022-08-03T03:43:36.748Z,91.00
2022-08-03T03:48:57.842Z,91.00
2022-08-03T03:54:18.496Z,91.12
2022-08-03T03:59:40.603Z,90.97
2022-08-03T04:05:20.270Z,90.97
2022-08-03T04:10:59.022Z,91.02
2022-08-03T04:16:24.284Z,91.06
2022-08-03T04:21:49.951Z,91.00
2022-08-03T04:27:14.093Z,91.18
2022-08-03T04:32:37.295Z,90.93
2022-08-03T04:38:02.495Z,91.05
2022-08-03T04:43:25.481Z,91.09
2022-08-03T04:48:46.225Z,90.89
2022-08-03T04:54:07.513Z,91.02
2022-08-03T04:59:28.110Z,90.99
2022-08-03T05:04:49.238Z,91.22
2022-08-03T05:10:16.340Z,90.95
2022-08-03T05:15:42.849Z,90.89
2022-08-03T05:21:04.992Z,91.13
2022-08-03T05:26:25.975Z,91.03
2022-08-03T05:31:47.617Z,90.97
2022-08-03T05:37:08.720Z,90.76
2022-08-03T05:42:29.981Z,91.04
2022-08-03T05:47:51.070Z,90.89
2022-08-03T05:53:12.105Z,90.89
2022-08-03T05:58:32.546Z,90.78
2022-08-03T06:03:54.220Z,90.94
2022-08-03T06:09:15.300Z,90.82
2022-08-03T06:14:36.106Z,90.60
2022-08-03T06:19:56.999Z,90.41
2022-08-03T06:25:17.781Z,90.72
2022-08-03T06:30:41.877Z,90.64
2022-08-03T06:36:03.068Z,90.97
2022-08-03T06:41:23.696Z,91.00
2022-08-03T06:46:44.447Z,90.60
2022-08-03T06:52:16.647Z,90.86
2022-08-03T06:57:46.298Z,90.80
2022-08-03T07:03:07.060Z,90.47
2022-08-03T07:08:33.809Z,89.97
2022-08-03T07:13:56.395Z,89.93
2022-08-03T07:19:16.811Z,89.64
2022-08-03T07:24:37.806Z,89.09
2022-08-03T07:30:00.963Z,88.94
2022-08-03T07:35:25.057Z,88.84
2022-08-03T07:40:46.508Z,89.04
2022-08-03T07:46:07.217Z,89.04
2022-08-03T07:51:27.959Z,89.52
2022-08-03T07:56:48.904Z,89.74
2022-08-03T08:02:09.563Z,88.91
2022-08-03T08:07:29.939Z,88.29
2022-08-03T08:12:50.370Z,87.49
2022-08-03T08:18:11.228Z,87.51
2022-08-03T08:23:42.558Z,88.17
2022-08-03T08:29:05.234Z,88.57
2022-08-03T08:34:25.883Z,89.01
2022-08-03T08:39:46.688Z,89.07
2022-08-03T08:45:09.260Z,88.49
2022-08-03T08:50:30.392Z,88.16
2022-08-03T08:55:58.203Z,87.98
2022-08-03T09:01:21.766Z,87.35
2022-08-03T09:06:53.716Z,84.56
2022-08-03T09:12:40.921Z,82.89
2022-08-03T09:18:04.333Z,83.07
2022-08-03T09:24:00.719Z,82.66
2022-08-03T09:29:15.374Z,82.27
2022-08-03T09:34:36.379Z,82.18
2022-08-03T09:39:57.337Z,81.81
2022-08-03T09:50:58.487Z,82.65
2022-08-03T09:56:40.262Z,83.61
2022-08-03T10:02:01.870Z,82.87
2022-08-03T10:07:24.773Z,82.87
2022-08-03T10:12:45.348Z,82.59
2022-08-03T10:18:07.509Z,82.21
2022-08-03T10:23:34.929Z,82.70
2022-08-03T10:28:59.566Z,82.22
2022-08-03T10:34:24.168Z,78.84
2022-08-03T10:39:53.820Z,78.26
2022-08-03T10:45:25.374Z,79.25
2022-08-03T10:50:48.502Z,80.22
2022-08-03T10:56:50.564Z,80.90
2022-08-03T11:02:11.019Z,75.89
2022-08-03T11:07:31.821Z,72.88
2022-08-03T11:13:07.274Z,74.03
2022-08-03T11:18:28.543Z,75.85
2022-08-03T11:24:03.404Z,75.08
2022-08-03T11:29:30.906Z,72.23
2022-08-03T11:35:07.265Z,69.71
2022-08-03T11:40:53.744Z,69.41
2022-08-03T11:46:28.590Z,68.60
2022-08-03T11:51:54.459Z,67.67
2022-08-03T11:58:58.057Z,68.70
2022-08-03T12:03:13.630Z,67.90
2022-08-03T12:08:34.353Z,67.15
2022-08-03T12:14:45.074Z,64.47
2022-08-03T12:19:44.894Z,65.71
2022-08-03T12:25:09.587Z,66.47
2022-08-03T12:30:30.247Z,67.13
2022-08-03T12:36:05.981Z,66.70
2022-08-03T12:41:35.136Z,64.44
2022-08-03T12:46:58.854Z,64.88
2022-08-03T12:52:21.320Z,67.84
2022-08-03T12:57:42.265Z,65.79
2022-08-03T13:08:48.352Z,64.98
2022-08-03T13:14:09.468Z,65.02
2022-08-03T13:19:38.458Z,64.59
2022-08-03T13:25:01.064Z,65.50
2022-08-03T13:30:29.883Z,68.08
2022-08-03T13:35:50.935Z,67.03
2022-08-03T13:41:15.415Z,69.83
2022-08-03T13:46:36.615Z,68.92
2022-08-03T13:51:57.604Z,68.56
2022-08-03T13:58:03.563Z,68.10
2022-08-03T14:03:07.967Z,67.86
2022-08-03T14:08:33.176Z,69.62
2022-08-03T14:13:53.921Z,71.95
2022-08-03T14:19:15.801Z,72.08
2022-08-03T14:24:42.264Z,73.94
2022-08-03T14:30:03.803Z,74.87
2022-08-03T14:35:24.139Z,74.98
2022-08-03T14:40:44.657Z,74.98
2022-08-03T14:46:05.063Z,75.72
2022-08-03T14:51:25.584Z,76.12
2022-08-03T14:56:52.424Z,74.76
2022-08-03T15:02:21.242Z,74.07
2022-08-03T15:07:44.062Z,72.78
2022-08-03T15:13:04.398Z,71.05
2022-08-03T15:18:24.810Z,65.26
2022-08-03T15:23:45.567Z,62.96
2022-08-03T15:29:05.999Z,67.99
2022-08-03T15:34:26.589Z,69.55
2022-08-03T15:39:59.176Z,74.99
2022-08-03T15:45:22.571Z,77.17
2022-08-03T15:50:43.768Z,76.57
2022-08-03T15:56:09.802Z,75.18
2022-08-03T16:01:32.800Z,75.08
2022-08-03T16:06:53.228Z,77.92
2022-08-03T16:12:16.046Z,78.70
2022-08-03T16:17:38.780Z,72.06
2022-08-03T16:22:59.086Z,68.67
2022-08-03T16:28:23.018Z,70.25
2022-08-03T16:33:43.940Z,70.26
2022-08-03T16:39:04.569Z,66.75
2022-08-03T16:44:25.379Z,63.99
2022-08-03T16:49:54.876Z,62.04
2022-08-03T16:55:42.874Z,67.54
2022-08-03T17:00:57.253Z,69.65
2022-08-03T17:06:19.433Z,73.01
2022-08-03T17:11:47.254Z,75.52
2022-08-03T17:17:47.512Z,76.64
2022-08-03T17:23:35.671Z,77.24
2022-08-03T17:29:02.325Z,78.07
2022-08-03T17:34:34.062Z,77.36
2022-08-03T17:39:59.297Z,77.59
2022-08-03T17:45:20.643Z,77.53
2022-08-03T17:50:50.443Z,77.95
2022-08-03T17:56:40.293Z,79.18
2022-08-03T18:02:30.767Z,80.17
2022-08-03T18:07:59.192Z,81.37
2022-08-03T18:13:24.301Z,81.82
2022-08-03T18:18:45.023Z,81.79
2022-08-03T18:24:11.065Z,82.29
2022-08-03T18:29:31.623Z,82.15
2022-08-03T18:34:56.448Z,81.84
2022-08-03T18:40:20.736Z,81.95
2022-08-03T18:45:56.336Z,81.95
2022-08-03T18:51:24.129Z,81.96
2022-08-03T18:57:00.324Z,83.00
2022-08-03T19:02:48.980Z,83.36
2022-08-03T19:08:16.961Z,82.96
2022-08-03T19:13:50.921Z,83.02
2022-08-03T19:19:14.510Z,83.12
2022-08-03T19:24:38.608Z,83.19
2022-08-03T19:30:04.089Z,83.45
2022-08-03T19:35:46.692Z,83.11
2022-08-03T19:41:13.898Z,83.44
2022-08-03T19:46:54.048Z,83.58
2022-08-03T19:52:20.617Z,83.69
2022-08-03T19:57:45.628Z,83.41
2022-08-03T20:03:19.671Z,83.18
2022-08-03T20:08:44.173Z,83.24
2022-08-03T20:14:05.649Z,83.59
2022-08-03T20:19:32.675Z,83.87
2022-08-03T20:24:56.912Z,83.96
2022-08-03T20:30:18.598Z,83.83
2022-08-03T20:35:49.381Z,84.09
2022-08-03T20:41:10.160Z,84.00
2022-08-03T20:46:46.445Z,83.87
2022-08-03T20:52:18.407Z,83.81
2022-08-03T20:57:40.337Z,84.05
2022-08-03T21:03:01.307Z,84.36
2022-08-03T21:14:20.253Z,84.32
2022-08-03T21:19:51.989Z,84.53
2022-08-03T21:25:28.924Z,84.90
2022-08-03T21:30:57.154Z,84.78
2022-08-03T21:36:35.015Z,84.90
2022-08-03T21:42:02.802Z,85.13
2022-08-03T21:47:29.289Z,85.65
2022-08-03T21:52:54.703Z,85.38
2022-08-03T21:58:20.533Z,85.35
2022-08-03T22:03:54.111Z,85.45
2022-08-03T22:09:20.250Z,85.92
2022-08-03T22:14:41.166Z,85.91
2022-08-03T22:20:02.496Z,85.84
2022-08-03T22:25:29.183Z,85.96
2022-08-03T22:30:52.022Z,86.01
2022-08-03T22:36:13.531Z,85.88
2022-08-03T22:41:34.223Z,86.12
2022-08-03T22:46:56.109Z,85.96
2022-08-03T22:52:16.902Z,86.05
2022-08-03T22:57:37.622Z,86.04
2022-08-03T23:03:01.929Z,86.26
2022-08-03T23:08:25.193Z,85.99
2022-08-03T23:13:52.144Z,86.25
2022-08-03T23:19:17.277Z,86.36
2022-08-03T23:24:46.223Z,86.21
2022-08-03T23:30:08.218Z,86.14
2022-08-03T23:36:22.679Z,86.52
2022-08-03T23:41:29.983Z,86.59
2022-08-03T23:46:50.601Z,86.50
2022-08-03T23:52:32.009Z,86.85
2022-08-03T23:58:11.088Z,86.92
